sensor_id;sensor_type;location;lat;lon;timestamp;pressure;altitude;pressure_sealevel;temperature;humidity
5298;BME280;14738;42.668;23.250;2023-04-01T00:00:24;48386.34;;;-141.90;44.14
5298;BME280;14738;42.668;23.250;2023-04-01T00:02:49;48366.47;;;-141.90;44.91
5298;BME280;14738;42.668;23.250;2023-04-01T00:05:15;48386.34;;;-141.90;44.67
5298;BME280;14738;42.668;23.250;2023-04-01T00:07:42;48360.53;;;-141.90;44.50
5298;BME280;14738;42.668;23.250;2023-04-01T00:10:09;48362.50;;;-141.90;43.84
5298;BME280;14738;42.668;23.250;2023-04-01T00:12:36;48360.53;;;-141.90;44.62
5298;BME280;14738;42.668;23.250;2023-04-01T00:15:03;48372.44;;;-141.90;44.70
5298;BME280;14738;42.668;23.250;2023-04-01T00:17:28;48366.47;;;-141.90;45.10
5298;BME280;14738;42.668;23.250;2023-04-01T00:19:57;48394.28;;;-141.90;45.18
5298;BME280;14738;42.668;23.250;2023-04-01T00:22:23;48370.44;;;-141.90;45.96
5298;BME280;14738;42.668;23.250;2023-04-01T00:24:50;48382.34;;;-141.90;45.95
5298;BME280;14738;42.668;23.250;2023-04-01T00:27:15;48358.53;;;-141.90;46.05
5298;BME280;14738;42.668;23.250;2023-04-01T00:29:45;48390.31;;;-141.90;46.52
5298;BME280;14738;42.668;23.250;2023-04-01T00:32:11;48390.31;;;-141.90;46.74
5298;BME280;14738;42.668;23.250;2023-04-01T00:34:37;48366.47;;;-141.90;47.20
5298;BME280;14738;42.668;23.250;2023-04-01T00:37:03;48342.66;;;-141.90;46.99
5298;BME280;14738;42.668;23.250;2023-04-01T00:39:30;48394.28;;;-141.90;47.50
5298;BME280;14738;42.668;23.250;2023-04-01T00:41:56;48390.31;;;-141.90;47.17
5298;BME280;14738;42.668;23.250;2023-04-01T00:44:40;48366.47;;;-141.90;47.60
5298;BME280;14738;42.668;23.250;2023-04-01T00:47:06;48394.28;;;-141.90;48.11
5298;BME280;14738;42.668;23.250;2023-04-01T00:49:35;48406.19;;;-141.90;48.13
5298;BME280;14738;42.668;23.250;2023-04-01T00:52:04;48366.47;;;-141.90;48.32
5298;BME280;14738;42.668;23.250;2023-04-01T00:54:32;48350.59;;;-141.90;47.88
5298;BME280;14738;42.668;23.250;2023-04-01T00:57:07;48358.53;;;-141.90;48.42
5298;BME280;14738;42.668;23.250;2023-04-01T00:59:37;48376.41;;;-141.90;48.93
5298;BME280;14738;42.668;23.250;2023-04-01T01:02:07;48356.56;;;-141.90;48.87
5298;BME280;14738;42.668;23.250;2023-04-01T01:04:34;48354.56;;;-141.90;48.71
5298;BME280;14738;42.668;23.250;2023-04-01T01:10:23;48384.34;;;-141.90;48.44
5298;BME280;14738;42.668;23.250;2023-04-01T01:15:57;48384.34;;;-141.90;49.15
5298;BME280;14738;42.668;23.250;2023-04-01T01:18:39;48342.66;;;-141.90;49.04
5298;BME280;14738;42.668;23.250;2023-04-01T01:21:30;48374.41;;;-141.90;47.91
5298;BME280;14738;42.668;23.250;2023-04-01T01:37:15;48354.56;;;-141.90;47.64
5298;BME280;14738;42.668;23.250;2023-04-01T01:39:44;48388.31;;;-141.90;47.38
5298;BME280;14738;42.668;23.250;2023-04-01T01:42:13;48354.56;;;-141.90;47.52
5298;BME280;14738;42.668;23.250;2023-04-01T01:44:42;48378.38;;;-141.90;47.50
5298;BME280;14738;42.668;23.250;2023-04-01T01:47:09;48376.41;;;-141.90;46.23
5298;BME280;14738;42.668;23.250;2023-04-01T01:49:36;48372.44;;;-141.90;46.72
5298;BME280;14738;42.668;23.250;2023-04-01T01:52:04;48354.56;;;-141.90;45.41
5298;BME280;14738;42.668;23.250;2023-04-01T01:54:30;48392.28;;;-141.90;44.68
5298;BME280;14738;42.668;23.250;2023-04-01T01:57:06;48354.56;;;-141.90;44.05
5298;BME280;14738;42.668;23.250;2023-04-01T01:59:35;48378.38;;;-141.90;43.48
5298;BME280;14738;42.668;23.250;2023-04-01T02:02:03;48380.38;;;-141.90;43.25
5298;BME280;14738;42.668;23.250;2023-04-01T02:04:35;48370.44;;;-141.90;42.57
5298;BME280;14738;42.668;23.250;2023-04-01T02:07:03;48354.56;;;-141.90;42.62
5298;BME280;14738;42.668;23.250;2023-04-01T02:09:31;48366.47;;;-141.90;42.10
5298;BME280;14738;42.668;23.250;2023-04-01T02:12:07;48370.44;;;-141.90;41.85
5298;BME280;14738;42.668;23.250;2023-04-01T02:14:41;48350.59;;;-141.90;41.99
5298;BME280;14738;42.668;23.250;2023-04-01T02:17:11;48378.38;;;-141.90;41.80
5298;BME280;14738;42.668;23.250;2023-04-01T02:19:46;48376.41;;;-141.90;42.10
5298;BME280;14738;42.668;23.250;2023-04-01T02:22:23;48364.50;;;-141.90;41.81
5298;BME280;14738;42.668;23.250;2023-04-01T02:24:53;48374.41;;;-141.90;41.74
5298;BME280;14738;42.668;23.250;2023-04-01T02:27:20;48366.47;;;-141.90;42.62
5298;BME280;14738;42.668;23.250;2023-04-01T02:29:46;48366.47;;;-141.90;42.67
5298;BME280;14738;42.668;23.250;2023-04-01T02:32:12;48382.34;;;-141.90;42.79
5298;BME280;14738;42.668;23.250;2023-04-01T02:34:38;48390.31;;;-141.90;43.05
5298;BME280;14738;42.668;23.250;2023-04-01T02:37:04;48386.34;;;-141.90;43.21
5298;BME280;14738;42.668;23.250;2023-04-01T02:39:30;48354.56;;;-141.90;42.49
5298;BME280;14738;42.668;23.250;2023-04-01T02:41:56;48366.47;;;-141.90;41.04
5298;BME280;14738;42.668;23.250;2023-04-01T02:44:21;48390.31;;;-141.90;40.68
5298;BME280;14738;42.668;23.250;2023-04-01T02:46:47;48390.31;;;-141.90;41.42
5298;BME280;14738;42.668;23.250;2023-04-01T02:49:12;48356.56;;;-141.90;41.83
5298;BME280;14738;42.668;23.250;2023-04-01T02:51:37;48366.47;;;-141.90;39.49
5298;BME280;14738;42.668;23.250;2023-04-01T02:54:03;48390.31;;;-141.90;39.90
5298;BME280;14738;42.668;23.250;2023-04-01T02:56:28;48356.56;;;-141.90;40.27
5298;BME280;14738;42.668;23.250;2023-04-01T02:58:54;48362.50;;;-141.90;40.67
5298;BME280;14738;42.668;23.250;2023-04-01T03:01:20;48384.34;;;-141.90;41.59
5298;BME280;14738;42.668;23.250;2023-04-01T03:03:45;48372.44;;;-141.90;41.88
5298;BME280;14738;42.668;23.250;2023-04-01T03:06:13;48330.75;;;-141.90;41.92
5298;BME280;14738;42.668;23.250;2023-04-01T03:08:39;48344.63;;;-141.90;41.87
5298;BME280;14738;42.668;23.250;2023-04-01T03:11:05;48390.31;;;-141.90;43.13
5298;BME280;14738;42.668;23.250;2023-04-01T03:13:31;48358.53;;;-141.90;41.88
5298;BME280;14738;42.668;23.250;2023-04-01T03:15:56;48372.44;;;-141.90;41.01
5298;BME280;14738;42.668;23.250;2023-04-01T03:18:22;48354.56;;;-141.90;41.21
5298;BME280;14738;42.668;23.250;2023-04-01T03:20:47;48362.50;;;-141.90;42.79
5298;BME280;14738;42.668;23.250;2023-04-01T03:23:13;48374.41;;;-141.90;44.22
5298;BME280;14738;42.668;23.250;2023-04-01T03:25:38;48340.66;;;-141.90;45.58
5298;BME280;14738;42.668;23.250;2023-04-01T03:28:04;48362.50;;;-141.90;44.71
5298;BME280;14738;42.668;23.250;2023-04-01T03:30:30;48376.41;;;-141.90;44.15
5298;BME280;14738;42.668;23.250;2023-04-01T03:32:57;48390.31;;;-141.90;44.23
5298;BME280;14738;42.668;23.250;2023-04-01T03:35:23;48364.50;;;-141.90;43.40
5298;BME280;14738;42.668;23.250;2023-04-01T03:37:50;48364.50;;;-141.90;44.28
5298;BME280;14738;42.668;23.250;2023-04-01T03:40:15;48342.66;;;-141.90;44.33
5298;BME280;14738;42.668;23.250;2023-04-01T03:42:41;48384.34;;;-141.90;44.08
5298;BME280;14738;42.668;23.250;2023-04-01T03:45:06;48390.31;;;-141.90;44.49
5298;BME280;14738;42.668;23.250;2023-04-01T03:47:32;48372.44;;;-141.90;43.95
5298;BME280;14738;42.668;23.250;2023-04-01T03:49:57;48360.53;;;-141.90;44.67
5298;BME280;14738;42.668;23.250;2023-04-01T03:52:23;48372.44;;;-141.90;43.99
5298;BME280;14738;42.668;23.250;2023-04-01T03:54:48;48352.59;;;-141.90;43.24
5298;BME280;14738;42.668;23.250;2023-04-01T03:57:14;48342.66;;;-141.90;43.47
5298;BME280;14738;42.668;23.250;2023-04-01T03:59:39;48364.50;;;-141.90;47.10
5298;BME280;14738;42.668;23.250;2023-04-01T04:02:05;48364.50;;;-141.90;46.45
5298;BME280;14738;42.668;23.250;2023-04-01T04:04:30;48376.41;;;-141.90;46.78
5298;BME280;14738;42.668;23.250;2023-04-01T04:06:56;48372.44;;;-141.90;46.88
5298;BME280;14738;42.668;23.250;2023-04-01T04:09:21;48340.66;;;-141.90;46.92
5298;BME280;14738;42.668;23.250;2023-04-01T04:11:47;48370.44;;;-141.90;47.51
5298;BME280;14738;42.668;23.250;2023-04-01T04:14:13;48370.44;;;-141.90;48.26
5298;BME280;14738;42.668;23.250;2023-04-01T04:16:38;48364.50;;;-141.90;48.52
5298;BME280;14738;42.668;23.250;2023-04-01T04:19:04;48390.31;;;-141.90;48.98
5298;BME280;14738;42.668;23.250;2023-04-01T04:21:29;48374.41;;;-141.90;48.96
5298;BME280;14738;42.668;23.250;2023-04-01T04:23:55;48390.31;;;-141.90;49.21
5298;BME280;14738;42.668;23.250;2023-04-01T04:26:20;48362.50;;;-141.90;49.79
5298;BME280;14738;42.668;23.250;2023-04-01T04:28:46;48376.41;;;-141.90;50.08
5298;BME280;14738;42.668;23.250;2023-04-01T04:31:12;48370.44;;;-141.90;49.36
5298;BME280;14738;42.668;23.250;2023-04-01T04:33:42;48394.28;;;-141.90;49.78
5298;BME280;14738;42.668;23.250;2023-04-01T04:36:08;48366.47;;;-141.90;48.62
5298;BME280;14738;42.668;23.250;2023-04-01T04:38:34;48376.41;;;-141.90;49.46
5298;BME280;14738;42.668;23.250;2023-04-01T04:40:59;48376.41;;;-141.90;48.96
5298;BME280;14738;42.668;23.250;2023-04-01T04:43:24;48394.28;;;-141.90;50.32
5298;BME280;14738;42.668;23.250;2023-04-01T04:45:50;48400.22;;;-141.90;50.00
5298;BME280;14738;42.668;23.250;2023-04-01T04:48:16;48362.50;;;-141.90;47.59
5298;BME280;14738;42.668;23.250;2023-04-01T04:50:45;48386.34;;;-141.90;48.39
5298;BME280;14738;42.668;23.250;2023-04-01T04:53:14;48378.38;;;-141.90;49.75
5298;BME280;14738;42.668;23.250;2023-04-01T04:55:47;48366.47;;;-141.90;50.08
5298;BME280;14738;42.668;23.250;2023-04-01T04:58:13;48390.31;;;-141.90;50.30
5298;BME280;14738;42.668;23.250;2023-04-01T05:00:39;48402.22;;;-141.90;48.62
5298;BME280;14738;42.668;23.250;2023-04-01T05:03:04;48386.34;;;-141.90;49.75
5298;BME280;14738;42.668;23.250;2023-04-01T05:05:30;48410.16;;;-141.90;49.98
5298;BME280;14738;42.668;23.250;2023-04-01T05:07:55;48366.47;;;-141.90;48.89
5298;BME280;14738;42.668;23.250;2023-04-01T05:10:21;48384.34;;;-141.90;49.81
5298;BME280;14738;42.668;23.250;2023-04-01T05:12:46;48354.56;;;-141.90;49.90
5298;BME280;14738;42.668;23.250;2023-04-01T05:15:12;48376.41;;;-141.90;50.28
5298;BME280;14738;42.668;23.250;2023-04-01T05:17:37;48366.47;;;-141.90;50.94
5298;BME280;14738;42.668;23.250;2023-04-01T05:20:03;48422.06;;;-141.90;50.52
5298;BME280;14738;42.668;23.250;2023-04-01T05:22:29;48388.31;;;-141.90;51.37
5298;BME280;14738;42.668;23.250;2023-04-01T05:24:55;48370.44;;;-141.90;49.52
5298;BME280;14738;42.668;23.250;2023-04-01T05:27:20;48422.06;;;-141.90;49.61
5298;BME280;14738;42.668;23.250;2023-04-01T05:29:46;48410.16;;;-141.90;48.15
5298;BME280;14738;42.668;23.250;2023-04-01T05:32:11;48412.13;;;-141.90;44.02
5298;BME280;14738;42.668;23.250;2023-04-01T05:34:37;48386.34;;;-141.90;40.97
5298;BME280;14738;42.668;23.250;2023-04-01T05:37:02;48388.31;;;-141.90;37.61
5298;BME280;14738;42.668;23.250;2023-04-01T05:39:27;48418.09;;;-141.90;34.38
5298;BME280;14738;42.668;23.250;2023-04-01T05:41:53;48445.88;;;-141.90;32.73
5298;BME280;14738;42.668;23.250;2023-04-01T05:44:18;48469.72;;;-141.90;30.24
5298;BME280;14738;42.668;23.250;2023-04-01T05:46:44;48426.03;;;-141.90;30.04
5298;BME280;14738;42.668;23.250;2023-04-01T05:49:10;48453.81;;;-141.90;30.17
5298;BME280;14738;42.668;23.250;2023-04-01T05:51:35;48443.91;;;-141.90;29.59
5298;BME280;14738;42.668;23.250;2023-04-01T05:54:00;48424.06;;;-141.90;28.93
5298;BME280;14738;42.668;23.250;2023-04-01T05:56:26;48424.06;;;-141.90;30.89
5298;BME280;14738;42.668;23.250;2023-04-01T05:58:53;48473.69;;;-141.90;30.22
5298;BME280;14738;42.668;23.250;2023-04-01T06:01:19;48435.97;;;-141.90;29.15
5298;BME280;14738;42.668;23.250;2023-04-01T06:03:45;48396.25;;;-141.90;32.00
5298;BME280;14738;42.668;23.250;2023-04-01T06:06:14;48410.16;;;-141.90;34.18
5298;BME280;14738;42.668;23.250;2023-04-01T06:08:41;48433.97;;;-141.90;32.87
5298;BME280;14738;42.668;23.250;2023-04-01T06:17:04;48378.38;;;-141.90;33.24
5298;BME280;14738;42.668;23.250;2023-04-01T06:19:47;48356.56;;;-141.90;34.49
5298;BME280;14738;42.668;23.250;2023-04-01T06:25:19;48255.31;;;-141.90;34.02
5298;BME280;14738;42.668;23.250;2023-04-01T06:30:43;48378.38;;;-141.90;35.98
5298;BME280;14738;42.668;23.250;2023-04-01T06:38:55;48396.25;;;-141.90;35.26
5298;BME280;14738;42.668;23.250;2023-04-01T06:50:32;48384.34;;;-141.90;34.90
5298;BME280;14738;42.668;23.250;2023-04-01T06:53:10;48352.59;;;-141.90;35.22
5298;BME280;14738;42.668;23.250;2023-04-01T06:55:53;48362.50;;;-141.90;35.62
5298;BME280;14738;42.668;23.250;2023-04-01T06:58:27;48356.56;;;-141.90;35.37
5298;BME280;14738;42.668;23.250;2023-04-01T07:00:58;48392.28;;;-141.90;35.88
5298;BME280;14738;42.668;23.250;2023-04-01T07:03:43;48414.13;;;-141.90;36.03
5298;BME280;14738;42.668;23.250;2023-04-01T07:06:16;48358.53;;;-141.90;34.92
5298;BME280;14738;42.668;23.250;2023-04-01T07:08:46;48350.59;;;-141.90;34.33
5298;BME280;14738;42.668;23.250;2023-04-01T07:11:30;48378.38;;;-141.90;34.15
5298;BME280;14738;42.668;23.250;2023-04-01T07:14:17;48388.31;;;-141.90;34.42
5298;BME280;14738;42.668;23.250;2023-04-01T07:16:59;48386.34;;;-141.90;35.13
5298;BME280;14738;42.668;23.250;2023-04-01T07:22:09;48386.34;;;-141.90;35.03
5298;BME280;14738;42.668;23.250;2023-04-01T07:24:41;48394.28;;;-141.90;35.30
5298;BME280;14738;42.668;23.250;2023-04-01T07:27:10;48390.31;;;-141.90;35.09
5298;BME280;14738;42.668;23.250;2023-04-01T07:29:36;48410.16;;;-141.90;35.41
5298;BME280;14738;42.668;23.250;2023-04-01T07:34:56;48394.28;;;-141.90;34.78
5298;BME280;14738;42.668;23.250;2023-04-01T07:37:39;48380.38;;;-141.90;34.30
5298;BME280;14738;42.668;23.250;2023-04-01T07:40:32;48390.31;;;-141.90;33.70
5298;BME280;14738;42.668;23.250;2023-04-01T07:48:40;48410.16;;;-141.90;35.34
5298;BME280;14738;42.668;23.250;2023-04-01T07:54:08;48402.22;;;-141.90;35.48
5298;BME280;14738;42.668;23.250;2023-04-01T07:56:49;48386.34;;;-141.90;34.66
5298;BME280;14738;42.668;23.250;2023-04-01T08:07:20;48358.53;;;-141.90;36.84
5298;BME280;14738;42.668;23.250;2023-04-01T08:10:44;48370.44;;;-141.90;36.96
5298;BME280;14738;42.668;23.250;2023-04-01T08:15:45;48390.31;;;-141.90;35.05
5298;BME280;14738;42.668;23.250;2023-04-01T08:18:27;48370.44;;;-141.90;34.80
5298;BME280;14738;42.668;23.250;2023-04-01T08:21:02;48418.09;;;-141.90;34.40
5298;BME280;14738;42.668;23.250;2023-04-01T08:23:41;48334.72;;;-141.90;34.71
5298;BME280;14738;42.668;23.250;2023-04-01T08:33:53;48416.09;;;-141.90;32.85
5298;BME280;14738;42.668;23.250;2023-04-01T08:36:31;48408.16;;;-141.90;32.07
5298;BME280;14738;42.668;23.250;2023-04-01T08:39:04;48416.09;;;-141.90;32.89
5298;BME280;14738;42.668;23.250;2023-04-01T09:03:18;48412.13;;;-141.90;32.99
5298;BME280;14738;42.668;23.250;2023-04-01T09:19:58;48437.94;;;-141.90;25.83
5298;BME280;14738;42.668;23.250;2023-04-01T09:28:28;48457.81;;;-141.90;25.42
5298;BME280;14738;42.668;23.250;2023-04-01T09:31:17;48348.63;;;-141.90;25.46
5298;BME280;14738;42.668;23.250;2023-04-01T09:39:55;48455.81;;;-141.90;25.98
5298;BME280;14738;42.668;23.250;2023-04-01T09:45:42;48418.09;;;-141.90;26.41
5298;BME280;14738;42.668;23.250;2023-04-01T09:56:52;48433.97;;;-141.90;23.91
5298;BME280;14738;42.668;23.250;2023-04-01T10:10:48;48469.72;;;-141.90;24.51
5298;BME280;14738;42.668;23.250;2023-04-01T10:16:26;48479.63;;;-141.90;25.33
5298;BME280;14738;42.668;23.250;2023-04-01T10:31:20;48479.63;;;-141.90;22.89
5298;BME280;14738;42.668;23.250;2023-04-01T10:47:57;48455.81;;;-141.90;24.84
5298;BME280;14738;42.668;23.250;2023-04-01T11:12:32;48463.75;;;-141.90;25.25
5298;BME280;14738;42.668;23.250;2023-04-01T11:20:31;48408.16;;;-141.90;25.89
5298;BME280;14738;42.668;23.250;2023-04-01T11:23:11;48408.16;;;-141.90;25.94
5298;BME280;14738;42.668;23.250;2023-04-01T11:26:08;48435.97;;;-141.90;27.82
5298;BME280;14738;42.668;23.250;2023-04-01T11:28:51;48408.16;;;-141.90;29.50
5298;BME280;14738;42.668;23.250;2023-04-01T11:31:39;48398.25;;;-141.90;31.45
5298;BME280;14738;42.668;23.250;2023-04-01T11:40:02;48396.25;;;-141.90;36.75
5298;BME280;14738;42.668;23.250;2023-04-01T11:45:19;48362.50;;;-141.90;43.92
5298;BME280;14738;42.668;23.250;2023-04-01T11:48:03;48380.38;;;-141.90;52.39
5298;BME280;14738;42.668;23.250;2023-04-01T11:53:28;48370.44;;;-141.90;66.41
5298;BME280;14738;42.668;23.250;2023-04-01T11:58:49;48366.47;;;-141.90;86.93
5298;BME280;14738;42.668;23.250;2023-04-01T12:12:35;48366.47;;;-141.90;100.00
5298;BME280;14738;42.668;23.250;2023-04-01T12:17:49;48390.31;;;-141.90;100.00
5298;BME280;14738;42.668;23.250;2023-04-01T12:25:54;48398.25;;;-141.90;57.84
5298;BME280;14738;42.668;23.250;2023-04-01T12:34:39;48310.91;;;-141.90;61.85
5298;BME280;14738;42.668;23.250;2023-04-01T12:45:44;48412.13;;;-141.90;66.64
5298;BME280;14738;42.668;23.250;2023-04-01T13:05:35;48392.28;;;-141.90;100.00
5298;BME280;14738;42.668;23.250;2023-04-01T13:11:09;48372.44;;;-141.90;82.51
5298;BME280;14738;42.668;23.250;2023-04-01T13:13:53;48394.28;;;-141.90;69.82
5298;BME280;14738;42.668;23.250;2023-04-01T13:16:30;48406.19;;;-141.90;62.78
5298;BME280;14738;42.668;23.250;2023-04-01T13:19:35;48364.50;;;-141.90;57.24
5298;BME280;14738;42.668;23.250;2023-04-01T13:24:53;48372.44;;;-141.90;53.17
5298;BME280;14738;42.668;23.250;2023-04-01T13:32:40;48398.25;;;-141.90;51.49
5298;BME280;14738;42.668;23.250;2023-04-01T13:40:36;48390.31;;;-141.90;48.05
5298;BME280;14738;42.668;23.250;2023-04-01T13:43:24;48384.34;;;-141.90;48.25
5298;BME280;14738;42.668;23.250;2023-04-01T13:48:52;48390.31;;;-141.90;46.78
5298;BME280;14738;42.668;23.250;2023-04-01T14:03:04;48426.03;;;-141.90;44.63
5298;BME280;14738;42.668;23.250;2023-04-01T14:09:06;48410.16;;;-141.90;44.59
5298;BME280;14738;42.668;23.250;2023-04-01T14:14:29;48414.13;;;-141.90;43.08
5298;BME280;14738;42.668;23.250;2023-04-01T14:17:00;48374.41;;;-141.90;42.64
5298;BME280;14738;42.668;23.250;2023-04-01T14:29:14;48390.31;;;-141.90;41.25
5298;BME280;14738;42.668;23.250;2023-04-01T14:31:47;48386.34;;;-141.90;41.69
5298;BME280;14738;42.668;23.250;2023-04-01T14:48:38;48366.47;;;-141.90;38.88
5298;BME280;14738;42.668;23.250;2023-04-01T14:51:15;48416.09;;;-141.90;38.72
5298;BME280;14738;42.668;23.250;2023-04-01T14:53:49;48372.44;;;-141.90;38.17
5298;BME280;14738;42.668;23.250;2023-04-01T14:56:38;48372.44;;;-141.90;38.60
5298;BME280;14738;42.668;23.250;2023-04-01T14:59:09;48368.47;;;-141.90;39.50
5298;BME280;14738;42.668;23.250;2023-04-01T15:02:39;48368.47;;;-141.90;39.04
5298;BME280;14738;42.668;23.250;2023-04-01T15:05:02;48382.34;;;-141.90;39.47
5298;BME280;14738;42.668;23.250;2023-04-01T15:08:00;48402.22;;;-141.90;41.48
5298;BME280;14738;42.668;23.250;2023-04-01T15:10:41;48386.34;;;-141.90;41.71
5298;BME280;14738;42.668;23.250;2023-04-01T15:16:17;48382.34;;;-141.90;41.81
5298;BME280;14738;42.668;23.250;2023-04-01T15:19:14;48384.34;;;-141.90;40.97
5298;BME280;14738;42.668;23.250;2023-04-01T15:22:37;48366.47;;;-141.90;40.00
5298;BME280;14738;42.668;23.250;2023-04-01T15:25:17;48390.31;;;-141.90;39.77
5298;BME280;14738;42.668;23.250;2023-04-01T15:30:51;48364.50;;;-141.90;40.55
5298;BME280;14738;42.668;23.250;2023-04-01T15:36:40;48398.25;;;-141.90;39.64
5298;BME280;14738;42.668;23.250;2023-04-01T15:44:47;48384.34;;;-141.90;40.32
5298;BME280;14738;42.668;23.250;2023-04-01T16:00:30;48422.06;;;-141.90;66.00
5298;BME280;14738;42.668;23.250;2023-04-01T16:17:13;48287.06;;;-141.90;100.00
5298;BME280;14738;42.668;23.250;2023-04-01T16:19:39;48390.31;;;-141.90;100.00
5298;BME280;14738;42.668;23.250;2023-04-01T16:22:19;48412.13;;;-141.90;100.00
5298;BME280;14738;42.668;23.250;2023-04-01T16:24:59;48418.09;;;-141.90;100.00
5298;BME280;14738;42.668;23.250;2023-04-01T16:27:51;48358.53;;;-141.90;100.00
5298;BME280;14738;42.668;23.250;2023-04-01T16:30:32;48392.28;;;-141.90;100.00
5298;BME280;14738;42.668;23.250;2023-04-01T16:33:14;48422.06;;;-141.90;100.00
5298;BME280;14738;42.668;23.250;2023-04-01T16:35:49;48433.97;;;-141.90;100.00
5298;BME280;14738;42.668;23.250;2023-04-01T16:38:59;48352.59;;;-141.90;100.00
5298;BME280;14738;42.668;23.250;2023-04-01T16:41:32;48414.13;;;-141.90;100.00
5298;BME280;14738;42.668;23.250;2023-04-01T16:44:13;48390.31;;;-141.90;100.00
5298;BME280;14738;42.668;23.250;2023-04-01T16:46:53;48394.28;;;-141.90;100.00
5298;BME280;14738;42.668;23.250;2023-04-01T16:49:32;48384.34;;;-141.90;100.00
5298;BME280;14738;42.668;23.250;2023-04-01T16:52:13;48398.25;;;-141.90;100.00
5298;BME280;14738;42.668;23.250;2023-04-01T16:55:02;48406.19;;;-141.90;100.00
5298;BME280;14738;42.668;23.250;2023-04-01T16:57:56;48390.31;;;-141.90;100.00
5298;BME280;14738;42.668;23.250;2023-04-01T17:00:37;48404.19;;;-141.90;100.00
5298;BME280;14738;42.668;23.250;2023-04-01T17:03:12;48408.16;;;-141.90;100.00
5298;BME280;14738;42.668;23.250;2023-04-01T17:11:12;48398.25;;;-141.90;100.00
5298;BME280;14738;42.668;23.250;2023-04-01T17:14:04;48410.16;;;-141.90;100.00
5298;BME280;14738;42.668;23.250;2023-04-01T17:16:50;48410.16;;;-141.90;100.00
5298;BME280;14738;42.668;23.250;2023-04-01T17:35:33;48406.19;;;-141.90;100.00
5298;BME280;14738;42.668;23.250;2023-04-01T17:43:22;48404.19;;;-141.90;100.00
5298;BME280;14738;42.668;23.250;2023-04-01T17:45:54;48410.16;;;-141.90;100.00
5298;BME280;14738;42.668;23.250;2023-04-01T17:48:24;48414.13;;;-141.90;100.00
5298;BME280;14738;42.668;23.250;2023-04-01T17:54:05;48433.97;;;-141.90;100.00
5298;BME280;14738;42.668;23.250;2023-04-01T17:56:54;48426.03;;;-141.90;100.00
5298;BME280;14738;42.668;23.250;2023-04-01T18:02:02;48414.13;;;-141.90;100.00
5298;BME280;14738;42.668;23.250;2023-04-01T18:07:23;48416.09;;;-141.90;100.00
5298;BME280;14738;42.668;23.250;2023-04-01T18:10:08;48426.03;;;-141.90;100.00
5298;BME280;14738;42.668;23.250;2023-04-01T18:12:45;48422.06;;;-141.90;100.00
5298;BME280;14738;42.668;23.250;2023-04-01T18:15:27;48414.13;;;-141.90;100.00
5298;BME280;14738;42.668;23.250;2023-04-01T18:26:23;48422.06;;;-141.90;100.00
5298;BME280;14738;42.668;23.250;2023-04-01T18:29:13;48406.19;;;-141.90;100.00
5298;BME280;14738;42.668;23.250;2023-04-01T18:37:29;48435.97;;;-141.90;100.00
5298;BME280;14738;42.668;23.250;2023-04-01T18:42:38;48422.06;;;-141.90;100.00
5298;BME280;14738;42.668;23.250;2023-04-01T18:48:06;48342.66;;;-141.90;100.00
5298;BME280;14738;42.668;23.250;2023-04-01T18:50:59;48414.13;;;-141.90;100.00
5298;BME280;14738;42.668;23.250;2023-04-01T18:53:48;48418.09;;;-141.90;100.00
5298;BME280;14738;42.668;23.250;2023-04-01T18:56:31;48410.16;;;-141.90;100.00
5298;BME280;14738;42.668;23.250;2023-04-01T18:59:04;48402.22;;;-141.90;100.00
5298;BME280;14738;42.668;23.250;2023-04-01T19:07:47;48386.34;;;-141.90;100.00
5298;BME280;14738;42.668;23.250;2023-04-01T19:10:19;48412.13;;;-141.90;100.00
5298;BME280;14738;42.668;23.250;2023-04-01T19:17:57;48394.28;;;-141.90;100.00
5298;BME280;14738;42.668;23.250;2023-04-01T19:20:37;48404.19;;;-141.90;100.00
5298;BME280;14738;42.668;23.250;2023-04-01T19:23:31;48386.34;;;-141.90;100.00
5298;BME280;14738;42.668;23.250;2023-04-01T19:26:02;48386.34;;;-141.90;100.00
5298;BME280;14738;42.668;23.250;2023-04-01T19:32:06;48398.25;;;-141.90;100.00
5298;BME280;14738;42.668;23.250;2023-04-01T19:34:49;48430.00;;;-141.90;100.00
5298;BME280;14738;42.668;23.250;2023-04-01T19:38:01;48390.31;;;-141.90;100.00
5298;BME280;14738;42.668;23.250;2023-04-01T19:46:16;48481.63;;;-141.90;100.00
5298;BME280;14738;42.668;23.250;2023-04-01T19:54:53;48404.19;;;-141.90;100.00
5298;BME280;14738;42.668;23.250;2023-04-01T19:57:47;48370.44;;;-141.90;100.00
5298;BME280;14738;42.668;23.250;2023-04-01T20:03:25;48426.03;;;-141.90;100.00
5298;BME280;14738;42.668;23.250;2023-04-01T20:09:03;48404.19;;;-141.90;100.00
5298;BME280;14738;42.668;23.250;2023-04-01T20:14:45;48390.31;;;-141.90;100.00
5298;BME280;14738;42.668;23.250;2023-04-01T20:19:51;48384.34;;;-141.90;100.00
5298;BME280;14738;42.668;23.250;2023-04-01T20:27:54;48406.19;;;-141.90;100.00
5298;BME280;14738;42.668;23.250;2023-04-01T20:35:57;48433.97;;;-141.90;100.00
5298;BME280;14738;42.668;23.250;2023-04-01T20:38:41;48428.03;;;-141.90;100.00
5298;BME280;14738;42.668;23.250;2023-04-01T20:44:31;48406.19;;;-141.90;100.00
5298;BME280;14738;42.668;23.250;2023-04-01T20:47:30;48422.06;;;-141.90;100.00
5298;BME280;14738;42.668;23.250;2023-04-01T20:52:56;48350.59;;;-141.90;100.00
5298;BME280;14738;42.668;23.250;2023-04-01T21:10:29;48370.44;;;-141.90;100.00
5298;BME280;14738;42.668;23.250;2023-04-01T21:18:54;48382.34;;;-141.90;100.00
5298;BME280;14738;42.668;23.250;2023-04-01T21:28:04;48386.34;;;-141.90;100.00
5298;BME280;14738;42.668;23.250;2023-04-01T21:30:44;48406.19;;;-141.90;100.00
5298;BME280;14738;42.668;23.250;2023-04-01T21:41:34;48396.25;;;-141.90;100.00
5298;BME280;14738;42.668;23.250;2023-04-01T21:52:42;48422.06;;;-141.90;100.00
5298;BME280;14738;42.668;23.250;2023-04-01T22:00:52;48394.28;;;-141.90;100.00
5298;BME280;14738;42.668;23.250;2023-04-01T22:03:59;48402.22;;;-141.90;100.00